Asahimaru No.8 — JD3733 — position and weather

sailwx.info

Track history (hours):
 
Tides and Currents Weather Stations Pressure Air Temp Water Temp Dewpoint Dewpoint Depression Visibility Wind Speed Wind Dir Waves Ship Positions

Asahimaru No.8

Last reported at 2018-Feb-24 10:00 UTC. Time now 2018-Feb-24 10:09 UTC.
Position N 34°33' E 134°60'.

Length 49 m.

Type: Tanker. MMSI: 431005645.

Date/timePositionNaut miles runAvg speedWind from/ knotsBaromVisibWave heightAir tempDewpointWater temp
2018-Feb-24 10:00N 34°33' E 134°60'0 0.0
2018-Feb-24 09:27N 34°33' E 134°60'0 0.0
2018-Feb-24 08:57N 34°33' E 134°60'0 0.0
2018-Feb-24 08:27N 34°33' E 134°60'0 0.0
2018-Feb-24 07:57N 34°33' E 134°60'0 0.0
2018-Feb-24 07:30N 34°33' E 134°60'0 0.0
2018-Feb-24 07:00N 34°33' E 134°60'0 0.0
2018-Feb-24 06:27N 34°33' E 134°60'0 0.0
2018-Feb-24 06:00N 34°33' E 134°60'0 0.0
2018-Feb-24 05:27N 34°33' E 134°60'0 0.1
2018-Feb-24 05:00N 34°33' E 134°60'5 9.2
2018-Feb-24 04:30N 34°34' E 135°05'611.1
2018-Feb-24 04:00N 34°36' E 135°11'611.1
2018-Feb-24 03:29N 34°38' E 135°18'510.4
2018-Feb-24 02:59N 34°41' E 135°23'1 1.6
2018-Feb-24 02:30N 34°41' E 135°24'0 0.0
2018-Feb-24 02:00N 34°41' E 135°24'0 0.0
2018-Feb-24 01:30N 34°41' E 135°24'3 6.5
2018-Feb-24 01:00N 34°39' E 135°21'510.5
2018-Feb-24 00:30N 34°37' E 135°15'510.7
2018-Feb-24 00:00N 34°36' E 135°09'611.8
2018-Feb-23 23:30N 34°37' E 135°01'611.6
2018-Feb-23 23:00N 34°35' E 134°55'611.4
2018-Feb-23 22:29N 34°33' E 134°48'510.8
2018-Feb-23 21:59N 34°30' E 134°42'510.7
2018-Feb-23 21:29N 34°28' E 134°36'9810.0
2018-Feb-23 11:44N 34°05' E 132°41'3 9.9
2018-Feb-23 11:28N 34°03' E 132°39'52 9.3
2018-Feb-23 05:53N 33°48' E 131°39'510.9
2018-Feb-23 05:28N 33°49' E 131°34'510.8
2018-Feb-23 05:00N 33°50' E 131°28'610.6
2018-Feb-23 04:29N 33°51' E 131°21'510.2
2018-Feb-23 04:00N 33°52' E 131°16'5 9.9
2018-Feb-23 03:30N 33°54' E 131°10'5 9.9
2018-Feb-23 03:00N 33°57' E 131°05'5 9.9
2018-Feb-23 02:30N 33°58' E 130°59'510.0
2018-Feb-23 02:00N 33°54' E 130°55'2 3.4
2018-Feb-23 01:29N 33°53' E 130°54'0 0.0
2018-Feb-23 00:59N 33°53' E 130°54'0 0.0
2018-Feb-23 00:29N 33°53' E 130°54'0 0.0
2018-Feb-22 23:59N 33°53' E 130°54'0 0.4
2018-Feb-22 23:30N 33°54' E 130°54'2 3.0
2018-Feb-22 22:58N 33°54' E 130°52'0 0.0
2018-Feb-22 22:28N 33°54' E 130°52'0 0.0
2018-Feb-22 21:58N 33°54' E 130°52'0 0.0
2018-Feb-22 21:28N 33°54' E 130°52'0 0.0
2018-Feb-22 20:58N 33°54' E 130°52'0 0.0
2018-Feb-22 20:28N 33°54' E 130°52'0 0.0
2018-Feb-22 19:58N 33°54' E 130°52'0 0.0
2018-Feb-22 19:28N 33°54' E 130°52'0 0.0
2018-Feb-22 18:58N 33°54' E 130°52'0 0.0
2018-Feb-22 18:28N 33°54' E 130°52'0 0.0
2018-Feb-22 17:58N 33°54' E 130°52'0 0.0
2018-Feb-22 17:28N 33°54' E 130°52'0 0.0
2018-Feb-22 16:58N 33°54' E 130°52'0 0.0
2018-Feb-22 16:28N 33°54' E 130°52'0 0.0
2018-Feb-22 15:58N 33°54' E 130°52'0 0.0
2018-Feb-22 15:28N 33°54' E 130°52'0 0.0
2018-Feb-22 14:58N 33°54' E 130°52'0 0.0
2018-Feb-22 14:28N 33°54' E 130°52'0 0.0
2018-Feb-22 13:58N 33°54' E 130°52'0 0.0
2018-Feb-22 13:28N 33°54' E 130°52'0 0.0
2018-Feb-22 12:58N 33°54' E 130°52'0 0.0
2018-Feb-22 12:28N 33°54' E 130°52'0 0.0
2018-Feb-22 11:58N 33°54' E 130°52'0 0.0
2018-Feb-22 11:28N 33°54' E 130°52'0 0.0
2018-Feb-22 10:58N 33°54' E 130°52'0 0.0
2018-Feb-22 10:28N 33°54' E 130°52'0 0.0
2018-Feb-22 09:58N 33°54' E 130°52'0 0.0
2018-Feb-22 09:28N 33°54' E 130°52'0 0.0
2018-Feb-22 08:58N 33°54' E 130°52'0 0.0
2018-Feb-22 08:28N 33°54' E 130°52'0 0.0
2018-Feb-22 07:58N 33°54' E 130°52'0 0.0
2018-Feb-22 07:28N 33°54' E 130°52'0 0.0
2018-Feb-22 06:58N 33°54' E 130°52'0 0.0
2018-Feb-22 06:23N 33°54' E 130°52'1 1.9
2018-Feb-22 06:00N 33°54' E 130°53'4 8.2
2018-Feb-22 05:30N 33°58' E 130°50'510.9
2018-Feb-22 05:00N 33°58' E 130°43'611.3
2018-Feb-22 04:30N 33°57' E 130°37'611.0
2018-Feb-22 04:00N 33°56' E 130°30'510.8
2018-Feb-22 03:30N 33°51' E 130°26'510.8
2018-Feb-22 03:00N 33°48' E 130°21'610.8
2018-Feb-22 02:29N 33°43' E 130°17'4 9.1
2018-Feb-22 02:00N 33°39' E 130°18'5 8.1
2018-Feb-22 01:26N 33°36' E 130°23'0 0.0
2018-Feb-22 00:59N 33°36' E 130°23'0 0.0
2018-Feb-22 00:29N 33°36' E 130°23'0 0.0
2018-Feb-21 23:59N 33°36' E 130°23'1 2.0
2018-Feb-21 23:30N 33°37' E 130°22'1 2.0
2018-Feb-21 22:59N 33°38' E 130°21'0 0.0
2018-Feb-21 22:26N 33°38' E 130°21'0 0.0
2018-Feb-21 21:59N 33°38' E 130°21'2 3.6
2018-Feb-21 21:30N 33°38' E 130°19'5 8.4
2018-Feb-21 20:52N 33°43' E 130°17'510.9
2018-Feb-21 20:25N 33°47' E 130°21'811.0
2018-Feb-21 19:43N 33°53' E 130°27'210.4
2018-Feb-21 19:30N 33°55' E 130°29'510.3
2018-Feb-21 19:00N 33°57' E 130°34'510.6
2018-Feb-21 18:30N 33°58' E 130°41'510.7
2018-Feb-21 18:00N 33°58' E 130°47'510.7
2018-Feb-21 17:30N 33°56' E 130°53'5 9.5
2018-Feb-21 17:00N 33°58' E 130°58'510.6
2018-Feb-21 16:30N 33°57' E 131°04'511.0
2018-Feb-21 16:00N 33°54' E 131°10'611.0
2018-Feb-21 15:30N 33°52' E 131°16'611.3
2018-Feb-21 15:00N 33°51' E 131°23'611.2
2018-Feb-21 14:30N 33°49' E 131°29'611.3
2018-Feb-21 14:00N 33°48' E 131°36'5210.5
2018-Feb-21 09:04N 34°01' E 132°36'111.7
2018-Feb-21 08:59N 34°01' E 132°37'2 0.1
2018-Feb-20 15:16N 34°03' E 132°39'4810.8
2018-Feb-20 10:51N 33°47' E 131°45'410.9
2018-Feb-20 10:29N 33°48' E 131°40'510.9
2018-Feb-20 10:00N 33°49' E 131°34'611.1
2018-Feb-20 09:29N 33°50' E 131°27'611.3
2018-Feb-20 08:59N 33°51' E 131°20'611.5
2018-Feb-20 08:30N 33°53' E 131°14'611.7
2018-Feb-20 08:00N 33°55' E 131°07'611.9
2018-Feb-20 07:29N 33°58' E 131°01'510.8
2018-Feb-20 07:00N 33°55' E 130°56'3 6.3
2018-Feb-20 06:29N 33°55' E 130°52'0 0.0
2018-Feb-20 05:56N 33°55' E 130°52'0 0.0
2018-Feb-20 05:26N 33°55' E 130°52'0 0.0
2018-Feb-20 04:56N 33°55' E 130°52'1 3.5
2018-Feb-20 04:30N 33°56' E 130°53'0 0.1
2018-Feb-20 04:00N 33°56' E 130°53'0 0.0
2018-Feb-20 03:30N 33°56' E 130°53'0 0.0
2018-Feb-20 03:00N 33°56' E 130°53'0 0.0
2018-Feb-20 02:30N 33°56' E 130°53'0 0.0
2018-Feb-20 02:00N 33°56' E 130°53'2 4.0
2018-Feb-20 01:30N 33°54' E 130°54'0 0.6
2018-Feb-20 01:00N 33°54' E 130°54'0 0.0
2018-Feb-20 00:30N 33°54' E 130°54'0 0.0
2018-Feb-20 00:00N 33°54' E 130°54'0 0.0
2018-Feb-19 23:30N 33°54' E 130°54'1 1.8
2018-Feb-19 23:00N 33°54' E 130°53'1 1.5
2018-Feb-19 22:28N 33°54' E 130°52'0 0.0
2018-Feb-19 21:58N 33°54' E 130°52'0 0.0
2018-Feb-19 21:22N 33°54' E 130°52'0 0.0
2018-Feb-19 20:58N 33°54' E 130°52'0 0.0
2018-Feb-19 20:28N 33°54' E 130°52'0 0.0
2018-Feb-19 19:58N 33°54' E 130°52'0 0.0
2018-Feb-19 19:28N 33°54' E 130°52'0 0.0
2018-Feb-19 18:58N 33°54' E 130°52'0 0.0
2018-Feb-19 18:28N 33°54' E 130°52'0 0.0
2018-Feb-19 17:58N 33°54' E 130°52'0 0.0
2018-Feb-19 17:28N 33°54' E 130°52'0 0.0
2018-Feb-19 16:58N 33°54' E 130°52'0 0.0
2018-Feb-19 16:28N 33°54' E 130°52'0 0.0
2018-Feb-19 15:58N 33°54' E 130°52'0 0.0
2018-Feb-19 15:28N 33°54' E 130°52'0 0.0
2018-Feb-19 14:55N 33°54' E 130°52'0 0.0
2018-Feb-19 14:28N 33°54' E 130°52'0 0.0
2018-Feb-19 13:58N 33°54' E 130°52'0 0.0
2018-Feb-19 13:28N 33°54' E 130°52'0 0.0
2018-Feb-19 12:58N 33°54' E 130°52'0 0.0
2018-Feb-19 12:28N 33°54' E 130°52'0 0.0
2018-Feb-19 11:58N 33°54' E 130°52'0 0.0
2018-Feb-19 11:28N 33°54' E 130°52'0 0.0
2018-Feb-19 10:55N 33°54' E 130°52'0 0.0
2018-Feb-19 10:28N 33°54' E 130°52'0 0.0
2018-Feb-19 09:58N 33°54' E 130°52'0 0.0
2018-Feb-19 09:28N 33°54' E 130°52'0 0.0
2018-Feb-19 08:58N 33°54' E 130°52'0 0.0
2018-Feb-19 08:22N 33°54' E 130°52'0 0.0
2018-Feb-19 07:58N 33°54' E 130°52'0 0.0
2018-Feb-19 07:28N 33°54' E 130°52'0 0.0
2018-Feb-19 06:58N 33°54' E 130°52'0 0.0
2018-Feb-19 06:28N 33°54' E 130°52'0 0.0
2018-Feb-19 05:58N 33°54' E 130°52'0 0.0
2018-Feb-19 05:28N 33°54' E 130°52'0 0.0
2018-Feb-19 04:58N 33°54' E 130°52'0 0.0
2018-Feb-19 04:30N 33°54' E 130°52'3 6.0
2018-Feb-19 04:00N 33°55' E 130°56'612.2
2018-Feb-19 03:30N 33°59' E 131°01'611.5
2018-Feb-19 03:00N 33°56' E 131°07'5 9.1
2018-Feb-19 02:30N 33°56' E 131°13'2 2.6
2018-Feb-19 01:55N 33°57' E 131°14'0 0.0
2018-Feb-19 01:25N 33°57' E 131°14'0 0.1
2018-Feb-19 01:00N 33°57' E 131°14'0 0.8
2018-Feb-19 00:30N 33°57' E 131°14'2 3.2
2018-Feb-19 00:00N 33°55' E 131°13'0 0.0
2018-Feb-18 23:29N 33°55' E 131°13'0 0.0
2018-Feb-18 22:59N 33°55' E 131°13'0 0.0
2018-Feb-18 22:29N 33°55' E 131°13'0 0.0
2018-Feb-18 21:59N 33°55' E 131°13'0 0.0
2018-Feb-18 21:29N 33°55' E 131°13'0 0.0
2018-Feb-18 20:56N 33°55' E 131°13'0 0.0
2018-Feb-18 20:29N 33°55' E 131°13'0 0.0
2018-Feb-18 19:59N 33°55' E 131°13'0 0.0
2018-Feb-18 19:26N 33°55' E 131°13'0 0.0
2018-Feb-18 18:56N 33°55' E 131°13'0 0.0
2018-Feb-18 18:29N 33°55' E 131°13'0 0.0
2018-Feb-18 17:59N 33°55' E 131°13'0 0.0
2018-Feb-18 17:29N 33°55' E 131°13'0 0.0
2018-Feb-18 16:59N 33°55' E 131°13'0 0.1
2018-Feb-18 16:29N 33°55' E 131°13'0 0.0
2018-Feb-18 15:59N 33°55' E 131°13'0 0.0
2018-Feb-18 15:26N 33°55' E 131°13'0 0.0
2018-Feb-18 14:59N 33°55' E 131°13'0 0.0
2018-Feb-18 14:29N 33°55' E 131°13'0 0.0
2018-Feb-18 13:59N 33°55' E 131°13'0 0.1
2018-Feb-18 13:28N 33°55' E 131°13'4 8.0
2018-Feb-18 13:00N 33°52' E 131°15'611.5
2018-Feb-18 12:30N 33°51' E 131°22'611.3
2018-Feb-18 12:00N 33°50' E 131°29'611.4
2018-Feb-18 11:31N 33°49' E 131°35'611.8
2018-Feb-18 11:01N 33°48' E 131°42'4710.8
2018-Feb-18 06:40N 34°01' E 132°36'211.7
2018-Feb-18 06:30N 34°02' E 132°38'  
Track history (hours):
 
Tides and Currents Weather Stations Pressure Air Temp Water Temp Dewpoint Dewpoint Depression Visibility Wind Speed Wind Dir Waves Ship Positions

Asahimaru No.8

Last reported at 2018-Feb-24 10:00 UTC. Time now 2018-Feb-24 10:09 UTC.
Position N 34°33' E 134°60'.

Length 49 m.

Type: Tanker. MMSI: 431005645.

Date/timePositionNaut miles runAvg speedWind from/ knotsBaromVisibWave heightAir tempDewpointWater temp
2018-Feb-24 10:00N 34°33' E 134°60'0 0.0
2018-Feb-24 09:27N 34°33' E 134°60'0 0.0
2018-Feb-24 08:57N 34°33' E 134°60'0 0.0
2018-Feb-24 08:27N 34°33' E 134°60'0 0.0
2018-Feb-24 07:57N 34°33' E 134°60'0 0.0
2018-Feb-24 07:30N 34°33' E 134°60'0 0.0
2018-Feb-24 07:00N 34°33' E 134°60'0 0.0
2018-Feb-24 06:27N 34°33' E 134°60'0 0.0
2018-Feb-24 06:00N 34°33' E 134°60'0 0.0
2018-Feb-24 05:27N 34°33' E 134°60'0 0.1
2018-Feb-24 05:00N 34°33' E 134°60'5 9.2
2018-Feb-24 04:30N 34°34' E 135°05'611.1
2018-Feb-24 04:00N 34°36' E 135°11'611.1
2018-Feb-24 03:29N 34°38' E 135°18'510.4
2018-Feb-24 02:59N 34°41' E 135°23'1 1.6
2018-Feb-24 02:30N 34°41' E 135°24'0 0.0
2018-Feb-24 02:00N 34°41' E 135°24'0 0.0
2018-Feb-24 01:30N 34°41' E 135°24'3 6.5
2018-Feb-24 01:00N 34°39' E 135°21'510.5
2018-Feb-24 00:30N 34°37' E 135°15'510.7
2018-Feb-24 00:00N 34°36' E 135°09'611.8
2018-Feb-23 23:30N 34°37' E 135°01'611.6
2018-Feb-23 23:00N 34°35' E 134°55'611.4
2018-Feb-23 22:29N 34°33' E 134°48'510.8
2018-Feb-23 21:59N 34°30' E 134°42'510.7
2018-Feb-23 21:29N 34°28' E 134°36'9810.0
2018-Feb-23 11:44N 34°05' E 132°41'3 9.9
2018-Feb-23 11:28N 34°03' E 132°39'52 9.3
2018-Feb-23 05:53N 33°48' E 131°39'510.9
2018-Feb-23 05:28N 33°49' E 131°34'510.8
2018-Feb-23 05:00N 33°50' E 131°28'610.6
2018-Feb-23 04:29N 33°51' E 131°21'510.2
2018-Feb-23 04:00N 33°52' E 131°16'5 9.9
2018-Feb-23 03:30N 33°54' E 131°10'5 9.9
2018-Feb-23 03:00N 33°57' E 131°05'5 9.9
2018-Feb-23 02:30N 33°58' E 130°59'510.0
2018-Feb-23 02:00N 33°54' E 130°55'2 3.4
2018-Feb-23 01:29N 33°53' E 130°54'0 0.0
2018-Feb-23 00:59N 33°53' E 130°54'0 0.0
2018-Feb-23 00:29N 33°53' E 130°54'0 0.0
2018-Feb-22 23:59N 33°53' E 130°54'0 0.4
2018-Feb-22 23:30N 33°54' E 130°54'2 3.0
2018-Feb-22 22:58N 33°54' E 130°52'0 0.0
2018-Feb-22 22:28N 33°54' E 130°52'0 0.0
2018-Feb-22 21:58N 33°54' E 130°52'0 0.0
2018-Feb-22 21:28N 33°54' E 130°52'0 0.0
2018-Feb-22 20:58N 33°54' E 130°52'0 0.0
2018-Feb-22 20:28N 33°54' E 130°52'0 0.0
2018-Feb-22 19:58N 33°54' E 130°52'0 0.0
2018-Feb-22 19:28N 33°54' E 130°52'0 0.0
2018-Feb-22 18:58N 33°54' E 130°52'0 0.0
2018-Feb-22 18:28N 33°54' E 130°52'0 0.0
2018-Feb-22 17:58N 33°54' E 130°52'0 0.0
2018-Feb-22 17:28N 33°54' E 130°52'0 0.0
2018-Feb-22 16:58N 33°54' E 130°52'0 0.0
2018-Feb-22 16:28N 33°54' E 130°52'0 0.0
2018-Feb-22 15:58N 33°54' E 130°52'0 0.0
2018-Feb-22 15:28N 33°54' E 130°52'0 0.0
2018-Feb-22 14:58N 33°54' E 130°52'0 0.0
2018-Feb-22 14:28N 33°54' E 130°52'0 0.0
2018-Feb-22 13:58N 33°54' E 130°52'0 0.0
2018-Feb-22 13:28N 33°54' E 130°52'0 0.0
2018-Feb-22 12:58N 33°54' E 130°52'0 0.0
2018-Feb-22 12:28N 33°54' E 130°52'0 0.0
2018-Feb-22 11:58N 33°54' E 130°52'0 0.0
2018-Feb-22 11:28N 33°54' E 130°52'0 0.0
2018-Feb-22 10:58N 33°54' E 130°52'0 0.0
2018-Feb-22 10:28N 33°54' E 130°52'0 0.0
2018-Feb-22 09:58N 33°54' E 130°52'0 0.0
2018-Feb-22 09:28N 33°54' E 130°52'0 0.0
2018-Feb-22 08:58N 33°54' E 130°52'0 0.0
2018-Feb-22 08:28N 33°54' E 130°52'0 0.0
2018-Feb-22 07:58N 33°54' E 130°52'0 0.0
2018-Feb-22 07:28N 33°54' E 130°52'0 0.0
2018-Feb-22 06:58N 33°54' E 130°52'0 0.0
2018-Feb-22 06:23N 33°54' E 130°52'1 1.9
2018-Feb-22 06:00N 33°54' E 130°53'4 8.2
2018-Feb-22 05:30N 33°58' E 130°50'510.9
2018-Feb-22 05:00N 33°58' E 130°43'611.3
2018-Feb-22 04:30N 33°57' E 130°37'611.0
2018-Feb-22 04:00N 33°56' E 130°30'510.8
2018-Feb-22 03:30N 33°51' E 130°26'510.8
2018-Feb-22 03:00N 33°48' E 130°21'610.8
2018-Feb-22 02:29N 33°43' E 130°17'4 9.1
2018-Feb-22 02:00N 33°39' E 130°18'5 8.1
2018-Feb-22 01:26N 33°36' E 130°23'0 0.0
2018-Feb-22 00:59N 33°36' E 130°23'0 0.0
2018-Feb-22 00:29N 33°36' E 130°23'0 0.0
2018-Feb-21 23:59N 33°36' E 130°23'1 2.0
2018-Feb-21 23:30N 33°37' E 130°22'1 2.0
2018-Feb-21 22:59N 33°38' E 130°21'0 0.0
2018-Feb-21 22:26N 33°38' E 130°21'0 0.0
2018-Feb-21 21:59N 33°38' E 130°21'2 3.6
2018-Feb-21 21:30N 33°38' E 130°19'5 8.4
2018-Feb-21 20:52N 33°43' E 130°17'510.9
2018-Feb-21 20:25N 33°47' E 130°21'811.0
2018-Feb-21 19:43N 33°53' E 130°27'210.4
2018-Feb-21 19:30N 33°55' E 130°29'510.3
2018-Feb-21 19:00N 33°57' E 130°34'510.6
2018-Feb-21 18:30N 33°58' E 130°41'510.7
2018-Feb-21 18:00N 33°58' E 130°47'510.7
2018-Feb-21 17:30N 33°56' E 130°53'5 9.5
2018-Feb-21 17:00N 33°58' E 130°58'510.6
2018-Feb-21 16:30N 33°57' E 131°04'511.0
2018-Feb-21 16:00N 33°54' E 131°10'611.0
2018-Feb-21 15:30N 33°52' E 131°16'611.3
2018-Feb-21 15:00N 33°51' E 131°23'611.2
2018-Feb-21 14:30N 33°49' E 131°29'611.3
2018-Feb-21 14:00N 33°48' E 131°36'5210.5
2018-Feb-21 09:04N 34°01' E 132°36'111.7
2018-Feb-21 08:59N 34°01' E 132°37'2 0.1
2018-Feb-20 15:16N 34°03' E 132°39'4810.8
2018-Feb-20 10:51N 33°47' E 131°45'410.9
2018-Feb-20 10:29N 33°48' E 131°40'510.9
2018-Feb-20 10:00N 33°49' E 131°34'611.1
2018-Feb-20 09:29N 33°50' E 131°27'611.3
2018-Feb-20 08:59N 33°51' E 131°20'611.5
2018-Feb-20 08:30N 33°53' E 131°14'611.7
2018-Feb-20 08:00N 33°55' E 131°07'611.9
2018-Feb-20 07:29N 33°58' E 131°01'510.8
2018-Feb-20 07:00N 33°55' E 130°56'3 6.3
2018-Feb-20 06:29N 33°55' E 130°52'0 0.0
2018-Feb-20 05:56N 33°55' E 130°52'0 0.0
2018-Feb-20 05:26N 33°55' E 130°52'0 0.0
2018-Feb-20 04:56N 33°55' E 130°52'1 3.5
2018-Feb-20 04:30N 33°56' E 130°53'0 0.1
2018-Feb-20 04:00N 33°56' E 130°53'0 0.0
2018-Feb-20 03:30N 33°56' E 130°53'0 0.0
2018-Feb-20 03:00N 33°56' E 130°53'0 0.0
2018-Feb-20 02:30N 33°56' E 130°53'0 0.0
2018-Feb-20 02:00N 33°56' E 130°53'2 4.0
2018-Feb-20 01:30N 33°54' E 130°54'0 0.6
2018-Feb-20 01:00N 33°54' E 130°54'0 0.0
2018-Feb-20 00:30N 33°54' E 130°54'0 0.0
2018-Feb-20 00:00N 33°54' E 130°54'0 0.0
2018-Feb-19 23:30N 33°54' E 130°54'1 1.8
2018-Feb-19 23:00N 33°54' E 130°53'1 1.5
2018-Feb-19 22:28N 33°54' E 130°52'0 0.0
2018-Feb-19 21:58N 33°54' E 130°52'0 0.0
2018-Feb-19 21:22N 33°54' E 130°52'0 0.0
2018-Feb-19 20:58N 33°54' E 130°52'0 0.0
2018-Feb-19 20:28N 33°54' E 130°52'0 0.0
2018-Feb-19 19:58N 33°54' E 130°52'0 0.0
2018-Feb-19 19:28N 33°54' E 130°52'0 0.0
2018-Feb-19 18:58N 33°54' E 130°52'0 0.0
2018-Feb-19 18:28N 33°54' E 130°52'0 0.0
2018-Feb-19 17:58N 33°54' E 130°52'0 0.0
2018-Feb-19 17:28N 33°54' E 130°52'0 0.0
2018-Feb-19 16:58N 33°54' E 130°52'0 0.0
2018-Feb-19 16:28N 33°54' E 130°52'0 0.0
2018-Feb-19 15:58N 33°54' E 130°52'0 0.0
2018-Feb-19 15:28N 33°54' E 130°52'0 0.0
2018-Feb-19 14:55N 33°54' E 130°52'0 0.0
2018-Feb-19 14:28N 33°54' E 130°52'0 0.0
2018-Feb-19 13:58N 33°54' E 130°52'0 0.0
2018-Feb-19 13:28N 33°54' E 130°52'0 0.0
2018-Feb-19 12:58N 33°54' E 130°52'0 0.0
2018-Feb-19 12:28N 33°54' E 130°52'0 0.0
2018-Feb-19 11:58N 33°54' E 130°52'0 0.0
2018-Feb-19 11:28N 33°54' E 130°52'0 0.0
2018-Feb-19 10:55N 33°54' E 130°52'0 0.0
2018-Feb-19 10:28N 33°54' E 130°52'0 0.0
2018-Feb-19 09:58N 33°54' E 130°52'0 0.0
2018-Feb-19 09:28N 33°54' E 130°52'0 0.0
2018-Feb-19 08:58N 33°54' E 130°52'0 0.0
2018-Feb-19 08:22N 33°54' E 130°52'0 0.0
2018-Feb-19 07:58N 33°54' E 130°52'0 0.0
2018-Feb-19 07:28N 33°54' E 130°52'0 0.0
2018-Feb-19 06:58N 33°54' E 130°52'0 0.0
2018-Feb-19 06:28N 33°54' E 130°52'0 0.0
2018-Feb-19 05:58N 33°54' E 130°52'0 0.0
2018-Feb-19 05:28N 33°54' E 130°52'0 0.0
2018-Feb-19 04:58N 33°54' E 130°52'0 0.0
2018-Feb-19 04:30N 33°54' E 130°52'3 6.0
2018-Feb-19 04:00N 33°55' E 130°56'612.2
2018-Feb-19 03:30N 33°59' E 131°01'611.5
2018-Feb-19 03:00N 33°56' E 131°07'5 9.1
2018-Feb-19 02:30N 33°56' E 131°13'2 2.6
2018-Feb-19 01:55N 33°57' E 131°14'0 0.0
2018-Feb-19 01:25N 33°57' E 131°14'0 0.1
2018-Feb-19 01:00N 33°57' E 131°14'0 0.8
2018-Feb-19 00:30N 33°57' E 131°14'2 3.2
2018-Feb-19 00:00N 33°55' E 131°13'0 0.0
2018-Feb-18 23:29N 33°55' E 131°13'0 0.0
2018-Feb-18 22:59N 33°55' E 131°13'0 0.0
2018-Feb-18 22:29N 33°55' E 131°13'0 0.0
2018-Feb-18 21:59N 33°55' E 131°13'0 0.0
2018-Feb-18 21:29N 33°55' E 131°13'0 0.0
2018-Feb-18 20:56N 33°55' E 131°13'0 0.0
2018-Feb-18 20:29N 33°55' E 131°13'0 0.0
2018-Feb-18 19:59N 33°55' E 131°13'0 0.0
2018-Feb-18 19:26N 33°55' E 131°13'0 0.0
2018-Feb-18 18:56N 33°55' E 131°13'0 0.0
2018-Feb-18 18:29N 33°55' E 131°13'0 0.0
2018-Feb-18 17:59N 33°55' E 131°13'0 0.0
2018-Feb-18 17:29N 33°55' E 131°13'0 0.0
2018-Feb-18 16:59N 33°55' E 131°13'0 0.1
2018-Feb-18 16:29N 33°55' E 131°13'0 0.0
2018-Feb-18 15:59N 33°55' E 131°13'0 0.0
2018-Feb-18 15:26N 33°55' E 131°13'0 0.0
2018-Feb-18 14:59N 33°55' E 131°13'0 0.0
2018-Feb-18 14:29N 33°55' E 131°13'0 0.0
2018-Feb-18 13:59N 33°55' E 131°13'0 0.1
2018-Feb-18 13:28N 33°55' E 131°13'4 8.0
2018-Feb-18 13:00N 33°52' E 131°15'611.5
2018-Feb-18 12:30N 33°51' E 131°22'611.3
2018-Feb-18 12:00N 33°50' E 131°29'611.4
2018-Feb-18 11:31N 33°49' E 131°35'611.8
2018-Feb-18 11:01N 33°48' E 131°42'4710.8
2018-Feb-18 06:40N 34°01' E 132°36'211.7
2018-Feb-18 06:30N 34°02' E 132°38'  

Dump ship's entire track history